Terminal Aerodrome Forecast
Issued by NWS

Home | Current Version | Previous Version | Text Only | Print | Product List | Glossary On
Versions: 1 2 3 4 5 6 7 8 9 10 11 12 13 14
000
FTUS46 KPDT 221100
TAFRDM
TAF
KRDM 221139Z 2212/2312 31008KT P6SM VCSH BKN030 OVC050
      TEMPO 2212/2216 BKN025 OVC035
     FM221800 32007KT P6SM BKN060
     FM230100 VRB04KT P6SM BKN035 OVC050
     FM230800 16004KT P6SM OVC060=

USA.gov is the U.S. government's official web portal to all federal, state and local government web resources and services.